sensor_id;sensor_type;location;lat;lon;timestamp;temperature;humidity
24164;DHT22;12319;49.204;8.116;2022-10-18T00:02:09;17.80;99.90
24164;DHT22;12319;49.204;8.116;2022-10-18T00:04:35;17.70;99.90
24164;DHT22;12319;49.204;8.116;2022-10-18T00:07:00;17.80;99.90
24164;DHT22;12319;49.204;8.116;2022-10-18T00:09:26;17.70;99.90
24164;DHT22;12319;49.204;8.116;2022-10-18T00:11:52;17.70;99.90
24164;DHT22;12319;49.204;8.116;2022-10-18T00:14:18;17.80;99.90
24164;DHT22;12319;49.204;8.116;2022-10-18T00:16:43;17.80;99.90
24164;DHT22;12319;49.204;8.116;2022-10-18T00:19:09;17.80;99.90
24164;DHT22;12319;49.204;8.116;2022-10-18T00:21:35;19.60;99.90
24164;DHT22;12319;49.204;8.116;2022-10-18T00:24:01;17.80;99.90
24164;DHT22;12319;49.204;8.116;2022-10-18T00:26:28;17.80;99.90
24164;DHT22;12319;49.204;8.116;2022-10-18T00:29:00;17.80;99.90
24164;DHT22;12319;49.204;8.116;2022-10-18T00:31:34;17.80;99.90
24164;DHT22;12319;49.204;8.116;2022-10-18T00:34:03;17.80;99.90
24164;DHT22;12319;49.204;8.116;2022-10-18T00:36:31;17.80;99.90
24164;DHT22;12319;49.204;8.116;2022-10-18T00:38:59;18.20;99.90
24164;DHT22;12319;49.204;8.116;2022-10-18T00:41:28;17.80;99.90
24164;DHT22;12319;49.204;8.116;2022-10-18T00:44:02;17.80;99.90
24164;DHT22;12319;49.204;8.116;2022-10-18T00:46:36;17.80;99.90
24164;DHT22;12319;49.204;8.116;2022-10-18T00:49:20;17.80;99.90
24164;DHT22;12319;49.204;8.116;2022-10-18T00:51:56;17.80;99.90
24164;DHT22;12319;49.204;8.116;2022-10-18T00:54:23;17.80;99.90
24164;DHT22;12319;49.204;8.116;2022-10-18T00:56:49;17.90;99.90
24164;DHT22;12319;49.204;8.116;2022-10-18T00:59:16;17.80;99.90
24164;DHT22;12319;49.204;8.116;2022-10-18T01:01:43;17.90;99.90
24164;DHT22;12319;49.204;8.116;2022-10-18T01:04:09;17.80;99.90
24164;DHT22;12319;49.204;8.116;2022-10-18T01:07:00;17.90;99.90
24164;DHT22;12319;49.204;8.116;2022-10-18T01:09:50;17.90;99.90
24164;DHT22;12319;49.204;8.116;2022-10-18T01:12:26;17.90;99.90
24164;DHT22;12319;49.204;8.116;2022-10-18T01:15:13;17.90;99.90
24164;DHT22;12319;49.204;8.116;2022-10-18T01:23:57;17.90;99.90
24164;DHT22;12319;49.204;8.116;2022-10-18T01:27:05;17.80;99.90
24164;DHT22;12319;49.204;8.116;2022-10-18T01:32:28;17.80;99.90
24164;DHT22;12319;49.204;8.116;2022-10-18T01:35:00;17.80;99.90
24164;DHT22;12319;49.204;8.116;2022-10-18T01:37:27;17.80;99.90
24164;DHT22;12319;49.204;8.116;2022-10-18T01:39:55;17.80;99.90
24164;DHT22;12319;49.204;8.116;2022-10-18T01:42:22;17.80;99.90
24164;DHT22;12319;49.204;8.116;2022-10-18T01:44:49;17.70;99.90
24164;DHT22;12319;49.204;8.116;2022-10-18T01:47:17;17.70;99.90
24164;DHT22;12319;49.204;8.116;2022-10-18T01:49:43;17.70;99.90
24164;DHT22;12319;49.204;8.116;2022-10-18T01:52:12;17.80;99.90
24164;DHT22;12319;49.204;8.116;2022-10-18T01:54:41;17.70;99.90
24164;DHT22;12319;49.204;8.116;2022-10-18T01:59:58;17.70;99.90
24164;DHT22;12319;49.204;8.116;2022-10-18T02:02:51;17.70;99.90
24164;DHT22;12319;49.204;8.116;2022-10-18T02:05:51;17.70;99.90
24164;DHT22;12319;49.204;8.116;2022-10-18T02:11:05;17.70;99.90
24164;DHT22;12319;49.204;8.116;2022-10-18T02:13:47;17.70;99.90
24164;DHT22;12319;49.204;8.116;2022-10-18T02:16:18;17.60;99.90
24164;DHT22;12319;49.204;8.116;2022-10-18T02:18:59;17.60;99.90
24164;DHT22;12319;49.204;8.116;2022-10-18T02:21:27;17.60;99.90
24164;DHT22;12319;49.204;8.116;2022-10-18T02:23:54;17.60;99.90
24164;DHT22;12319;49.204;8.116;2022-10-18T02:26:20;17.50;99.90
24164;DHT22;12319;49.204;8.116;2022-10-18T02:28:46;17.50;99.90
24164;DHT22;12319;49.204;8.116;2022-10-18T02:34:28;17.50;99.90
24164;DHT22;12319;49.204;8.116;2022-10-18T02:36:59;17.50;99.90
24164;DHT22;12319;49.204;8.116;2022-10-18T02:39:45;17.50;99.90
24164;DHT22;12319;49.204;8.116;2022-10-18T02:42:12;17.50;99.90
24164;DHT22;12319;49.204;8.116;2022-10-18T02:44:39;17.50;99.90
24164;DHT22;12319;49.204;8.116;2022-10-18T02:47:06;17.50;99.90
24164;DHT22;12319;49.204;8.116;2022-10-18T02:49:32;17.60;99.90
24164;DHT22;12319;49.204;8.116;2022-10-18T02:51:57;17.50;99.90
24164;DHT22;12319;49.204;8.116;2022-10-18T02:54:23;17.50;99.90
24164;DHT22;12319;49.204;8.116;2022-10-18T02:56:49;17.50;99.90
24164;DHT22;12319;49.204;8.116;2022-10-18T02:59:15;17.60;99.90
24164;DHT22;12319;49.204;8.116;2022-10-18T03:01:41;17.50;99.90
24164;DHT22;12319;49.204;8.116;2022-10-18T03:04:06;17.50;99.90
24164;DHT22;12319;49.204;8.116;2022-10-18T03:06:33;17.50;99.90
24164;DHT22;12319;49.204;8.116;2022-10-18T03:09:00;17.70;99.90
24164;DHT22;12319;49.204;8.116;2022-10-18T03:11:26;17.40;99.90
24164;DHT22;12319;49.204;8.116;2022-10-18T03:13:51;17.50;99.90
24164;DHT22;12319;49.204;8.116;2022-10-18T03:16:17;17.50;99.90
24164;DHT22;12319;49.204;8.116;2022-10-18T03:18:43;17.30;99.90
24164;DHT22;12319;49.204;8.116;2022-10-18T03:21:09;17.60;99.90
24164;DHT22;12319;49.204;8.116;2022-10-18T03:23:34;17.30;99.90
24164;DHT22;12319;49.204;8.116;2022-10-18T03:26:00;17.30;99.90
24164;DHT22;12319;49.204;8.116;2022-10-18T03:28:26;17.20;99.90
24164;DHT22;12319;49.204;8.116;2022-10-18T03:30:51;17.20;99.90
24164;DHT22;12319;49.204;8.116;2022-10-18T03:33:17;17.20;99.90
24164;DHT22;12319;49.204;8.116;2022-10-18T03:35:43;17.20;99.90
24164;DHT22;12319;49.204;8.116;2022-10-18T03:38:09;17.10;99.90
24164;DHT22;12319;49.204;8.116;2022-10-18T03:40:34;17.10;99.90
24164;DHT22;12319;49.204;8.116;2022-10-18T03:43:00;17.20;99.90
24164;DHT22;12319;49.204;8.116;2022-10-18T03:45:25;17.90;99.90
24164;DHT22;12319;49.204;8.116;2022-10-18T03:47:51;17.80;99.90
24164;DHT22;12319;49.204;8.116;2022-10-18T03:50:17;17.20;99.90
24164;DHT22;12319;49.204;8.116;2022-10-18T03:52:42;17.20;99.90
24164;DHT22;12319;49.204;8.116;2022-10-18T03:55:08;17.50;99.90
24164;DHT22;12319;49.204;8.116;2022-10-18T03:57:33;17.20;99.90
24164;DHT22;12319;49.204;8.116;2022-10-18T03:59:59;17.40;99.90
24164;DHT22;12319;49.204;8.116;2022-10-18T04:02:24;17.20;99.90
24164;DHT22;12319;49.204;8.116;2022-10-18T04:04:50;17.20;99.90
24164;DHT22;12319;49.204;8.116;2022-10-18T04:07:16;17.20;99.90
24164;DHT22;12319;49.204;8.116;2022-10-18T04:09:42;17.20;99.90
24164;DHT22;12319;49.204;8.116;2022-10-18T04:12:07;17.50;99.90
24164;DHT22;12319;49.204;8.116;2022-10-18T04:14:33;17.30;99.90
24164;DHT22;12319;49.204;8.116;2022-10-18T04:16:58;17.30;99.90
24164;DHT22;12319;49.204;8.116;2022-10-18T04:19:24;17.80;99.90
24164;DHT22;12319;49.204;8.116;2022-10-18T04:21:49;17.40;99.90
24164;DHT22;12319;49.204;8.116;2022-10-18T04:24:18;17.30;99.90
24164;DHT22;12319;49.204;8.116;2022-10-18T04:26:43;17.30;99.90
24164;DHT22;12319;49.204;8.116;2022-10-18T04:29:09;17.30;99.90
24164;DHT22;12319;49.204;8.116;2022-10-18T04:31:34;17.40;99.90
24164;DHT22;12319;49.204;8.116;2022-10-18T04:34:00;17.60;99.90
24164;DHT22;12319;49.204;8.116;2022-10-18T04:36:27;17.30;99.90
24164;DHT22;12319;49.204;8.116;2022-10-18T04:38:52;17.30;99.90
24164;DHT22;12319;49.204;8.116;2022-10-18T04:41:18;17.30;99.90
24164;DHT22;12319;49.204;8.116;2022-10-18T04:43:43;17.40;99.90
24164;DHT22;12319;49.204;8.116;2022-10-18T04:46:09;17.40;99.90
24164;DHT22;12319;49.204;8.116;2022-10-18T04:48:34;17.30;99.90
24164;DHT22;12319;49.204;8.116;2022-10-18T04:51:00;17.40;99.90
24164;DHT22;12319;49.204;8.116;2022-10-18T04:53:25;17.40;99.90
24164;DHT22;12319;49.204;8.116;2022-10-18T04:55:51;17.40;99.90
24164;DHT22;12319;49.204;8.116;2022-10-18T04:58:17;17.90;99.90
24164;DHT22;12319;49.204;8.116;2022-10-18T05:00:43;17.40;99.90
24164;DHT22;12319;49.204;8.116;2022-10-18T05:03:10;17.40;99.90
24164;DHT22;12319;49.204;8.116;2022-10-18T05:05:36;17.70;99.90
24164;DHT22;12319;49.204;8.116;2022-10-18T05:08:02;17.70;99.90
24164;DHT22;12319;49.204;8.116;2022-10-18T05:10:28;17.50;99.90
24164;DHT22;12319;49.204;8.116;2022-10-18T05:12:53;17.50;99.90
24164;DHT22;12319;49.204;8.116;2022-10-18T05:15:19;17.80;99.90
24164;DHT22;12319;49.204;8.116;2022-10-18T05:17:45;17.50;99.90
24164;DHT22;12319;49.204;8.116;2022-10-18T05:20:10;17.40;99.90
24164;DHT22;12319;49.204;8.116;2022-10-18T05:22:36;17.50;99.90
24164;DHT22;12319;49.204;8.116;2022-10-18T05:25:02;17.80;99.90
24164;DHT22;12319;49.204;8.116;2022-10-18T05:27:28;17.60;99.90
24164;DHT22;12319;49.204;8.116;2022-10-18T05:29:54;17.70;99.90
24164;DHT22;12319;49.204;8.116;2022-10-18T05:32:19;18.10;99.90
24164;DHT22;12319;49.204;8.116;2022-10-18T05:34:45;17.60;99.90
24164;DHT22;12319;49.204;8.116;2022-10-18T05:37:12;17.60;99.90
24164;DHT22;12319;49.204;8.116;2022-10-18T05:39:38;17.60;99.90
24164;DHT22;12319;49.204;8.116;2022-10-18T05:42:04;17.70;99.90
24164;DHT22;12319;49.204;8.116;2022-10-18T05:44:29;17.70;99.90
24164;DHT22;12319;49.204;8.116;2022-10-18T05:46:55;17.70;99.90
24164;DHT22;12319;49.204;8.116;2022-10-18T05:49:21;17.70;99.90
24164;DHT22;12319;49.204;8.116;2022-10-18T05:51:47;17.70;99.90
24164;DHT22;12319;49.204;8.116;2022-10-18T05:54:13;17.70;99.90
24164;DHT22;12319;49.204;8.116;2022-10-18T05:56:39;17.70;99.90
24164;DHT22;12319;49.204;8.116;2022-10-18T05:59:04;17.70;99.90
24164;DHT22;12319;49.204;8.116;2022-10-18T06:01:35;17.80;99.90
24164;DHT22;12319;49.204;8.116;2022-10-18T06:04:00;17.70;99.90
24164;DHT22;12319;49.204;8.116;2022-10-18T06:06:26;17.80;99.90
24164;DHT22;12319;49.204;8.116;2022-10-18T06:08:51;17.80;99.90
24164;DHT22;12319;49.204;8.116;2022-10-18T06:11:18;17.90;99.90
24164;DHT22;12319;49.204;8.116;2022-10-18T06:13:46;17.90;99.90
24164;DHT22;12319;49.204;8.116;2022-10-18T06:16:13;18.00;99.90
24164;DHT22;12319;49.204;8.116;2022-10-18T06:18:40;18.00;99.90
24164;DHT22;12319;49.204;8.116;2022-10-18T06:21:06;18.00;99.90
24164;DHT22;12319;49.204;8.116;2022-10-18T06:23:32;18.10;99.90
24164;DHT22;12319;49.204;8.116;2022-10-18T06:26:03;18.10;99.90
24164;DHT22;12319;49.204;8.116;2022-10-18T06:28:29;18.20;99.90
24164;DHT22;12319;49.204;8.116;2022-10-18T06:30:56;18.20;99.90
24164;DHT22;12319;49.204;8.116;2022-10-18T06:33:21;18.20;99.90
24164;DHT22;12319;49.204;8.116;2022-10-18T06:36:00;18.30;99.90
24164;DHT22;12319;49.204;8.116;2022-10-18T06:38:27;18.30;99.90
24164;DHT22;12319;49.204;8.116;2022-10-18T06:40:55;18.30;99.90
24164;DHT22;12319;49.204;8.116;2022-10-18T06:43:22;18.50;99.90
24164;DHT22;12319;49.204;8.116;2022-10-18T06:45:48;18.40;99.90
24164;DHT22;12319;49.204;8.116;2022-10-18T06:48:15;18.40;99.90
24164;DHT22;12319;49.204;8.116;2022-10-18T06:50:40;18.30;99.90
24164;DHT22;12319;49.204;8.116;2022-10-18T06:53:06;18.40;99.90
24164;DHT22;12319;49.204;8.116;2022-10-18T06:55:33;18.30;99.90
24164;DHT22;12319;49.204;8.116;2022-10-18T06:57:59;18.30;99.90
24164;DHT22;12319;49.204;8.116;2022-10-18T07:00:24;18.30;99.90
24164;DHT22;12319;49.204;8.116;2022-10-18T07:02:50;18.30;99.90
24164;DHT22;12319;49.204;8.116;2022-10-18T07:05:16;18.30;99.90
24164;DHT22;12319;49.204;8.116;2022-10-18T07:07:41;18.20;99.90
24164;DHT22;12319;49.204;8.116;2022-10-18T07:10:07;18.30;99.90
24164;DHT22;12319;49.204;8.116;2022-10-18T07:12:33;18.30;99.90
24164;DHT22;12319;49.204;8.116;2022-10-18T07:14:59;18.30;99.90
24164;DHT22;12319;49.204;8.116;2022-10-18T07:17:25;18.30;99.90
24164;DHT22;12319;49.204;8.116;2022-10-18T07:19:51;18.30;99.90
24164;DHT22;12319;49.204;8.116;2022-10-18T07:22:16;18.30;99.90
24164;DHT22;12319;49.204;8.116;2022-10-18T07:24:42;18.30;99.90
24164;DHT22;12319;49.204;8.116;2022-10-18T07:27:07;18.40;99.90
24164;DHT22;12319;49.204;8.116;2022-10-18T07:29:33;18.30;99.90
24164;DHT22;12319;49.204;8.116;2022-10-18T07:32:02;18.30;99.90
24164;DHT22;12319;49.204;8.116;2022-10-18T07:34:28;18.30;99.90
24164;DHT22;12319;49.204;8.116;2022-10-18T07:36:53;18.30;99.90
24164;DHT22;12319;49.204;8.116;2022-10-18T07:39:19;18.40;99.90
24164;DHT22;12319;49.204;8.116;2022-10-18T07:41:45;18.50;99.90
24164;DHT22;12319;49.204;8.116;2022-10-18T07:44:10;18.50;99.90
24164;DHT22;12319;49.204;8.116;2022-10-18T07:46:36;18.70;99.90
24164;DHT22;12319;49.204;8.116;2022-10-18T07:49:02;18.60;99.90
24164;DHT22;12319;49.204;8.116;2022-10-18T07:51:27;18.80;99.90
24164;DHT22;12319;49.204;8.116;2022-10-18T07:53:55;18.90;99.90
24164;DHT22;12319;49.204;8.116;2022-10-18T07:56:20;18.90;99.90
24164;DHT22;12319;49.204;8.116;2022-10-18T07:58:48;18.90;99.90
24164;DHT22;12319;49.204;8.116;2022-10-18T08:01:15;18.90;99.90
24164;DHT22;12319;49.204;8.116;2022-10-18T08:03:42;18.90;99.90
24164;DHT22;12319;49.204;8.116;2022-10-18T08:06:09;18.80;99.90
24164;DHT22;12319;49.204;8.116;2022-10-18T08:08:36;18.80;99.90
24164;DHT22;12319;49.204;8.116;2022-10-18T08:11:08;19.20;99.90
24164;DHT22;12319;49.204;8.116;2022-10-18T08:13:33;18.90;99.90
24164;DHT22;12319;49.204;8.116;2022-10-18T08:16:07;18.90;99.90
24164;DHT22;12319;49.204;8.116;2022-10-18T08:18:34;18.90;99.90
24164;DHT22;12319;49.204;8.116;2022-10-18T08:21:02;18.90;99.90
24164;DHT22;12319;49.204;8.116;2022-10-18T08:23:28;18.90;99.90
24164;DHT22;12319;49.204;8.116;2022-10-18T08:25:54;19.00;99.90
24164;DHT22;12319;49.204;8.116;2022-10-18T08:28:19;19.00;99.90
24164;DHT22;12319;49.204;8.116;2022-10-18T08:30:45;19.10;99.90
24164;DHT22;12319;49.204;8.116;2022-10-18T08:33:11;19.20;99.90
24164;DHT22;12319;49.204;8.116;2022-10-18T08:35:36;19.30;99.90
24164;DHT22;12319;49.204;8.116;2022-10-18T08:38:02;19.50;99.90
24164;DHT22;12319;49.204;8.116;2022-10-18T08:40:28;19.70;99.90
24164;DHT22;12319;49.204;8.116;2022-10-18T08:43:02;19.90;99.90
24164;DHT22;12319;49.204;8.116;2022-10-18T08:45:35;20.10;99.90
24164;DHT22;12319;49.204;8.116;2022-10-18T08:48:03;20.20;99.70
24164;DHT22;12319;49.204;8.116;2022-10-18T08:50:32;20.30;99.60
24164;DHT22;12319;49.204;8.116;2022-10-18T08:53:19;20.40;99.40
24164;DHT22;12319;49.204;8.116;2022-10-18T08:55:59;20.50;98.90
24164;DHT22;12319;49.204;8.116;2022-10-18T08:58:30;20.50;98.80
24164;DHT22;12319;49.204;8.116;2022-10-18T09:04:08;20.70;98.40
24164;DHT22;12319;49.204;8.116;2022-10-18T09:09:27;21.00;98.50
24164;DHT22;12319;49.204;8.116;2022-10-18T09:12:41;21.10;97.80
24164;DHT22;12319;49.204;8.116;2022-10-18T09:15:17;21.10;97.40
24164;DHT22;12319;49.204;8.116;2022-10-18T09:18:33;20.90;97.40
24164;DHT22;12319;49.204;8.116;2022-10-18T09:23:20;21.00;97.20
24164;DHT22;12319;49.204;8.116;2022-10-18T09:25:59;21.10;97.40
24164;DHT22;12319;49.204;8.116;2022-10-18T09:28:36;21.40;97.60
24164;DHT22;12319;49.204;8.116;2022-10-18T09:31:29;22.10;96.90
24164;DHT22;12319;49.204;8.116;2022-10-18T09:33:58;22.60;96.70
24164;DHT22;12319;49.204;8.116;2022-10-18T09:36:30;23.20;95.40
24164;DHT22;12319;49.204;8.116;2022-10-18T09:39:03;23.90;94.40
24164;DHT22;12319;49.204;8.116;2022-10-18T09:41:36;24.50;92.90
24164;DHT22;12319;49.204;8.116;2022-10-18T09:44:20;24.60;91.10
24164;DHT22;12319;49.204;8.116;2022-10-18T09:46:51;24.40;90.40
24164;DHT22;12319;49.204;8.116;2022-10-18T09:49:22;24.40;90.80
24164;DHT22;12319;49.204;8.116;2022-10-18T09:51:50;24.30;90.90
24164;DHT22;12319;49.204;8.116;2022-10-18T09:54:25;24.30;90.80
24164;DHT22;12319;49.204;8.116;2022-10-18T09:57:15;24.10;90.40
24164;DHT22;12319;49.204;8.116;2022-10-18T09:59:46;23.80;89.10
24164;DHT22;12319;49.204;8.116;2022-10-18T10:02:18;23.50;90.20
24164;DHT22;12319;49.204;8.116;2022-10-18T10:04:45;23.30;90.20
24164;DHT22;12319;49.204;8.116;2022-10-18T10:07:13;23.10;90.50
24164;DHT22;12319;49.204;8.116;2022-10-18T10:09:48;23.10;90.60
24164;DHT22;12319;49.204;8.116;2022-10-18T10:14:53;23.10;90.50
24164;DHT22;12319;49.204;8.116;2022-10-18T10:17:24;23.20;91.10
24164;DHT22;12319;49.204;8.116;2022-10-18T10:20:01;23.30;90.60
24164;DHT22;12319;49.204;8.116;2022-10-18T10:22:36;23.30;90.40
24164;DHT22;12319;49.204;8.116;2022-10-18T10:25:02;23.30;90.30
24164;DHT22;12319;49.204;8.116;2022-10-18T10:27:32;23.20;90.60
24164;DHT22;12319;49.204;8.116;2022-10-18T10:30:00;23.30;90.60
24164;DHT22;12319;49.204;8.116;2022-10-18T10:32:42;23.20;90.40
24164;DHT22;12319;49.204;8.116;2022-10-18T10:35:27;23.20;90.10
24164;DHT22;12319;49.204;8.116;2022-10-18T10:37:54;23.00;89.00
24164;DHT22;12319;49.204;8.116;2022-10-18T10:40:34;23.00;90.10
24164;DHT22;12319;49.204;8.116;2022-10-18T10:46:07;22.90;89.20
24164;DHT22;12319;49.204;8.116;2022-10-18T10:48:49;22.90;88.90
24164;DHT22;12319;49.204;8.116;2022-10-18T10:51:33;22.90;89.50
24164;DHT22;12319;49.204;8.116;2022-10-18T10:54:14;22.80;89.00
24164;DHT22;12319;49.204;8.116;2022-10-18T10:59:27;22.70;88.70
24164;DHT22;12319;49.204;8.116;2022-10-18T11:02:33;22.80;89.80
24164;DHT22;12319;49.204;8.116;2022-10-18T11:05:41;22.80;88.80
24164;DHT22;12319;49.204;8.116;2022-10-18T11:08:08;23.00;87.70
24164;DHT22;12319;49.204;8.116;2022-10-18T11:10:42;23.00;88.60
24164;DHT22;12319;49.204;8.116;2022-10-18T11:15:51;23.20;88.40
24164;DHT22;12319;49.204;8.116;2022-10-18T11:18:21;23.20;87.60
24164;DHT22;12319;49.204;8.116;2022-10-18T11:20:55;23.30;87.10
24164;DHT22;12319;49.204;8.116;2022-10-18T11:23:29;23.30;87.40
24164;DHT22;12319;49.204;8.116;2022-10-18T11:42:10;24.00;84.40
24164;DHT22;12319;49.204;8.116;2022-10-18T11:44:54;24.10;85.00
24164;DHT22;12319;49.204;8.116;2022-10-18T11:50:10;24.40;82.60
24164;DHT22;12319;49.204;8.116;2022-10-18T11:52:55;24.70;82.00
24164;DHT22;12319;49.204;8.116;2022-10-18T11:58:23;25.00;81.40
24164;DHT22;12319;49.204;8.116;2022-10-18T12:01:00;24.90;79.80
24164;DHT22;12319;49.204;8.116;2022-10-18T12:06:17;24.70;80.30
24164;DHT22;12319;49.204;8.116;2022-10-18T12:09:07;24.70;79.80
24164;DHT22;12319;49.204;8.116;2022-10-18T12:11:43;24.70;78.60
24164;DHT22;12319;49.204;8.116;2022-10-18T12:16:49;25.20;78.50
24164;DHT22;12319;49.204;8.116;2022-10-18T12:19:20;25.50;79.50
24164;DHT22;12319;49.204;8.116;2022-10-18T12:21:46;25.90;78.00
24164;DHT22;12319;49.204;8.116;2022-10-18T12:24:19;26.00;77.40
24164;DHT22;12319;49.204;8.116;2022-10-18T12:26:46;25.90;75.90
24164;DHT22;12319;49.204;8.116;2022-10-18T12:29:24;25.70;76.60
24164;DHT22;12319;49.204;8.116;2022-10-18T12:31:55;25.50;76.00
24164;DHT22;12319;49.204;8.116;2022-10-18T12:37:12;25.40;76.40
24164;DHT22;12319;49.204;8.116;2022-10-18T12:42:19;25.40;74.80
24164;DHT22;12319;49.204;8.116;2022-10-18T12:44:46;25.30;74.10
24164;DHT22;12319;49.204;8.116;2022-10-18T12:47:22;25.10;75.20
24164;DHT22;12319;49.204;8.116;2022-10-18T12:50:03;24.90;74.60
24164;DHT22;12319;49.204;8.116;2022-10-18T12:52:30;24.70;74.60
24164;DHT22;12319;49.204;8.116;2022-10-18T13:24:32;23.70;77.30
24164;DHT22;12319;49.204;8.116;2022-10-18T13:30:01;23.60;77.60
24164;DHT22;12319;49.204;8.116;2022-10-18T13:38:44;23.40;77.60
24164;DHT22;12319;49.204;8.116;2022-10-18T13:41:20;23.30;77.60
24164;DHT22;12319;49.204;8.116;2022-10-18T13:48:45;23.10;78.40
24164;DHT22;12319;49.204;8.116;2022-10-18T13:51:39;23.00;78.50
24164;DHT22;12319;49.204;8.116;2022-10-18T13:54:30;22.80;78.30
24164;DHT22;12319;49.204;8.116;2022-10-18T14:02:47;22.50;78.90
24164;DHT22;12319;49.204;8.116;2022-10-18T14:08:11;22.40;79.40
24164;DHT22;12319;49.204;8.116;2022-10-18T14:10:45;22.30;79.70
24164;DHT22;12319;49.204;8.116;2022-10-18T14:13:22;22.30;79.90
24164;DHT22;12319;49.204;8.116;2022-10-18T14:15:51;22.20;80.00
24164;DHT22;12319;49.204;8.116;2022-10-18T14:18:26;22.20;80.40
24164;DHT22;12319;49.204;8.116;2022-10-18T14:20:59;22.10;80.30
24164;DHT22;12319;49.204;8.116;2022-10-18T14:23:33;22.20;80.50
24164;DHT22;12319;49.204;8.116;2022-10-18T14:26:07;22.20;80.70
24164;DHT22;12319;49.204;8.116;2022-10-18T14:28:33;22.10;80.70
24164;DHT22;12319;49.204;8.116;2022-10-18T14:31:04;22.00;80.60
24164;DHT22;12319;49.204;8.116;2022-10-18T14:33:33;22.00;80.80
24164;DHT22;12319;49.204;8.116;2022-10-18T14:38:28;21.90;80.90
24164;DHT22;12319;49.204;8.116;2022-10-18T14:41:14;21.80;80.90
24164;DHT22;12319;49.204;8.116;2022-10-18T14:43:40;21.80;81.20
24164;DHT22;12319;49.204;8.116;2022-10-18T14:48:40;21.70;81.70
24164;DHT22;12319;49.204;8.116;2022-10-18T14:51:08;21.70;81.70
24164;DHT22;12319;49.204;8.116;2022-10-18T14:53:37;21.60;81.90
24164;DHT22;12319;49.204;8.116;2022-10-18T14:56:04;21.60;82.20
24164;DHT22;12319;49.204;8.116;2022-10-18T14:58:32;21.50;82.30
24164;DHT22;12319;49.204;8.116;2022-10-18T15:00:58;21.50;82.60
24164;DHT22;12319;49.204;8.116;2022-10-18T15:03:25;21.40;82.80
24164;DHT22;12319;49.204;8.116;2022-10-18T15:05:53;21.40;82.90
24164;DHT22;12319;49.204;8.116;2022-10-18T15:08:20;21.40;83.00
24164;DHT22;12319;49.204;8.116;2022-10-18T15:10:47;21.40;83.40
24164;DHT22;12319;49.204;8.116;2022-10-18T15:13:13;21.30;83.50
24164;DHT22;12319;49.204;8.116;2022-10-18T15:15:39;21.30;83.60
24164;DHT22;12319;49.204;8.116;2022-10-18T15:18:06;21.30;83.80
24164;DHT22;12319;49.204;8.116;2022-10-18T15:20:36;21.30;84.10
24164;DHT22;12319;49.204;8.116;2022-10-18T15:23:25;21.30;84.30
24164;DHT22;12319;49.204;8.116;2022-10-18T15:25:59;21.30;84.60
24164;DHT22;12319;49.204;8.116;2022-10-18T15:31:03;21.30;84.50
24164;DHT22;12319;49.204;8.116;2022-10-18T15:33:31;21.30;84.70
24164;DHT22;12319;49.204;8.116;2022-10-18T15:36:26;21.30;84.70
24164;DHT22;12319;49.204;8.116;2022-10-18T15:39:03;21.20;85.00
24164;DHT22;12319;49.204;8.116;2022-10-18T15:41:53;21.20;85.10
24164;DHT22;12319;49.204;8.116;2022-10-18T15:44:24;21.20;85.60
24164;DHT22;12319;49.204;8.116;2022-10-18T15:46:53;21.20;85.50
24164;DHT22;12319;49.204;8.116;2022-10-18T15:49:54;21.10;85.60
24164;DHT22;12319;49.204;8.116;2022-10-18T15:52:27;21.10;86.50
24164;DHT22;12319;49.204;8.116;2022-10-18T15:54:54;21.00;86.00
24164;DHT22;12319;49.204;8.116;2022-10-18T15:57:19;21.00;86.10
24164;DHT22;12319;49.204;8.116;2022-10-18T16:00:05;21.00;86.90
24164;DHT22;12319;49.204;8.116;2022-10-18T16:02:31;21.00;87.10
24164;DHT22;12319;49.204;8.116;2022-10-18T16:05:00;20.90;86.60
24164;DHT22;12319;49.204;8.116;2022-10-18T16:07:27;20.80;86.90
24164;DHT22;12319;49.204;8.116;2022-10-18T16:09:52;20.80;86.90
24164;DHT22;12319;49.204;8.116;2022-10-18T16:12:18;20.80;86.90
24164;DHT22;12319;49.204;8.116;2022-10-18T16:14:43;20.80;86.90
24164;DHT22;12319;49.204;8.116;2022-10-18T16:17:10;20.70;87.00
24164;DHT22;12319;49.204;8.116;2022-10-18T16:19:42;20.70;87.30
24164;DHT22;12319;49.204;8.116;2022-10-18T16:22:11;20.80;87.30
24164;DHT22;12319;49.204;8.116;2022-10-18T16:24:37;20.70;87.20
24164;DHT22;12319;49.204;8.116;2022-10-18T16:27:03;20.60;87.20
24164;DHT22;12319;49.204;8.116;2022-10-18T16:29:29;20.60;87.40
24164;DHT22;12319;49.204;8.116;2022-10-18T16:31:58;20.60;87.60
24164;DHT22;12319;49.204;8.116;2022-10-18T16:34:24;20.50;87.70
24164;DHT22;12319;49.204;8.116;2022-10-18T16:36:53;20.50;87.80
24164;DHT22;12319;49.204;8.116;2022-10-18T16:39:20;20.40;87.80
24164;DHT22;12319;49.204;8.116;2022-10-18T16:41:46;20.40;88.00
24164;DHT22;12319;49.204;8.116;2022-10-18T16:44:12;20.40;88.20
24164;DHT22;12319;49.204;8.116;2022-10-18T16:46:38;20.40;88.50
24164;DHT22;12319;49.204;8.116;2022-10-18T16:49:05;20.30;89.30
24164;DHT22;12319;49.204;8.116;2022-10-18T16:51:31;20.20;88.90
24164;DHT22;12319;49.204;8.116;2022-10-18T16:53:56;20.20;89.30
24164;DHT22;12319;49.204;8.116;2022-10-18T16:56:30;20.20;89.50
24164;DHT22;12319;49.204;8.116;2022-10-18T16:58:57;20.10;90.00
24164;DHT22;12319;49.204;8.116;2022-10-18T17:01:23;20.10;90.00
24164;DHT22;12319;49.204;8.116;2022-10-18T17:03:50;20.00;90.10
24164;DHT22;12319;49.204;8.116;2022-10-18T17:06:24;20.00;90.20
24164;DHT22;12319;49.204;8.116;2022-10-18T17:08:51;19.90;90.40
24164;DHT22;12319;49.204;8.116;2022-10-18T17:11:18;19.90;90.50
24164;DHT22;12319;49.204;8.116;2022-10-18T17:13:44;19.90;90.60
24164;DHT22;12319;49.204;8.116;2022-10-18T17:16:32;20.00;90.70
24164;DHT22;12319;49.204;8.116;2022-10-18T17:19:01;19.80;91.10
24164;DHT22;12319;49.204;8.116;2022-10-18T17:21:28;19.80;90.90
24164;DHT22;12319;49.204;8.116;2022-10-18T17:23:54;19.80;91.00
24164;DHT22;12319;49.204;8.116;2022-10-18T17:26:22;19.80;91.00
24164;DHT22;12319;49.204;8.116;2022-10-18T17:28:52;19.80;91.10
24164;DHT22;12319;49.204;8.116;2022-10-18T17:31:18;19.80;91.40
24164;DHT22;12319;49.204;8.116;2022-10-18T17:33:43;19.80;91.30
24164;DHT22;12319;49.204;8.116;2022-10-18T17:36:09;19.70;91.40
24164;DHT22;12319;49.204;8.116;2022-10-18T17:38:34;19.70;91.50
24164;DHT22;12319;49.204;8.116;2022-10-18T17:41:05;19.80;91.60
24164;DHT22;12319;49.204;8.116;2022-10-18T17:43:31;19.70;91.80
24164;DHT22;12319;49.204;8.116;2022-10-18T17:45:56;19.70;91.70
24164;DHT22;12319;49.204;8.116;2022-10-18T17:48:22;19.70;91.70
24164;DHT22;12319;49.204;8.116;2022-10-18T17:50:49;19.70;91.80
24164;DHT22;12319;49.204;8.116;2022-10-18T17:53:14;19.60;91.90
24164;DHT22;12319;49.204;8.116;2022-10-18T17:55:42;19.40;91.90
24164;DHT22;12319;49.204;8.116;2022-10-18T17:58:08;19.70;92.00